createdAt,value
2023-01-03T00:01:30.184Z,2.83
2023-01-03T00:03:58.504Z,3.03
2023-01-03T00:06:28.890Z,3.20
2023-01-03T00:08:58.195Z,3.35
2023-01-03T00:11:46.104Z,2.95
2023-01-03T00:14:17.926Z,3.13
2023-01-03T00:16:45.394Z,3.42
2023-01-03T00:19:14.647Z,3.30
2023-01-03T00:21:42.652Z,2.85
2023-01-03T00:24:10.089Z,3.00
2023-01-03T00:26:38.044Z,3.00
2023-01-03T00:29:05.221Z,3.40
2023-01-03T00:31:33.696Z,3.28
2023-01-03T00:34:00.622Z,3.30
2023-01-03T00:36:27.540Z,3.97
2023-01-03T00:38:54.457Z,3.10
2023-01-03T00:41:21.437Z,2.85
2023-01-03T00:43:50.096Z,3.70
2023-01-03T00:46:18.945Z,3.00
2023-01-03T00:48:46.375Z,2.85
2023-01-03T00:51:22.422Z,3.53
2023-01-03T00:53:52.436Z,3.53
2023-01-03T00:56:21.738Z,3.03
2023-01-03T00:58:49.074Z,3.20
2023-01-03T01:01:23.192Z,2.83
2023-01-03T01:03:53.345Z,3.30
2023-01-03T01:06:25.300Z,3.05
2023-01-03T01:08:54.739Z,3.97
2023-01-03T01:11:22.454Z,2.90
2023-01-03T01:13:50.326Z,3.20
2023-01-03T01:16:23.986Z,2.55
2023-01-03T01:18:53.855Z,3.00
2023-01-03T01:21:24.769Z,3.13
2023-01-03T01:23:52.225Z,2.95
2023-01-03T01:26:21.644Z,2.97
2023-01-03T01:28:49.781Z,2.97
2023-01-03T01:31:19.077Z,3.15
2023-01-03T01:33:46.471Z,2.97
2023-01-03T01:36:22.086Z,3.45
2023-01-03T01:38:54.369Z,3.03
2023-01-03T01:41:41.793Z,3.53
2023-01-03T01:44:46.514Z,3.10
2023-01-03T01:47:31.332Z,3.15
2023-01-03T01:50:25.711Z,3.22
2023-01-03T01:52:59.877Z,3.28
2023-01-03T01:55:35.516Z,3.30
2023-01-03T01:58:02.918Z,3.47
2023-01-03T02:00:31.282Z,3.05
2023-01-03T02:02:58.578Z,3.15
2023-01-03T02:05:26.233Z,3.50
2023-01-03T02:07:54.492Z,3.42
2023-01-03T02:10:45.888Z,3.55
2023-01-03T02:13:31.572Z,3.90
2023-01-03T02:16:13.299Z,3.35
2023-01-03T02:19:12.322Z,3.22
2023-01-03T02:21:51.104Z,3.00
2023-01-03T02:24:21.259Z,2.95
2023-01-03T02:26:58.794Z,3.30
2023-01-03T02:29:44.711Z,3.10
2023-01-03T02:32:22.434Z,3.72
2023-01-03T02:35:03.959Z,3.17
2023-01-03T02:37:42.311Z,3.47
2023-01-03T02:40:34.659Z,3.13
2023-01-03T02:43:12.775Z,3.45
2023-01-03T02:46:03.947Z,3.47
2023-01-03T02:48:52.147Z,3.33
2023-01-03T02:51:35.052Z,2.95
2023-01-03T02:54:05.206Z,3.85
2023-01-03T02:56:38.786Z,3.25
2023-01-03T02:59:12.227Z,3.17
2023-01-03T03:01:45.091Z,3.22
2023-01-03T03:04:13.372Z,3.35
2023-01-03T03:06:50.305Z,2.70
2023-01-03T03:09:18.036Z,3.40
2023-01-03T03:12:04.861Z,3.45
2023-01-03T03:14:42.817Z,3.35
2023-01-03T03:17:14.437Z,3.10
2023-01-03T03:20:06.038Z,2.80
2023-01-03T03:23:03.488Z,2.92
2023-01-03T03:25:55.449Z,3.03
2023-01-03T03:28:36.792Z,3.53
2023-01-03T03:31:10.144Z,3.08
2023-01-03T03:33:46.141Z,3.05
2023-01-03T03:36:24.031Z,3.22
2023-01-03T03:38:51.303Z,2.75
2023-01-03T03:41:39.376Z,3.05
2023-01-03T03:44:44.369Z,2.95
2023-01-03T03:47:25.804Z,3.05
2023-01-03T03:49:56.366Z,2.45
2023-01-03T03:52:28.470Z,2.85
2023-01-03T03:55:06.058Z,3.10
2023-01-03T03:57:39.630Z,2.80
2023-01-03T04:00:11.304Z,3.42
2023-01-03T04:02:43.047Z,3.10
2023-01-03T04:05:12.284Z,3.13
2023-01-03T04:07:40.351Z,3.10
2023-01-03T04:10:09.556Z,3.40
2023-01-03T04:12:36.763Z,2.90
2023-01-03T04:15:07.008Z,3.25
2023-01-03T04:17:34.133Z,3.10
2023-01-03T04:20:01.076Z,3.20
2023-01-03T04:22:28.096Z,2.80
2023-01-03T04:24:55.054Z,3.55
2023-01-03T04:27:21.989Z,3.05
2023-01-03T04:29:49.094Z,3.28
2023-01-03T04:32:16.048Z,3.40
2023-01-03T04:34:43.236Z,3.40
2023-01-03T04:37:10.171Z,3.42
2023-01-03T04:39:37.145Z,3.83
2023-01-03T04:42:24.353Z,4.22
2023-01-03T04:44:51.376Z,3.83
2023-01-03T04:47:18.541Z,4.65
2023-01-03T04:49:46.667Z,3.97
2023-01-03T04:52:17.463Z,4.03
2023-01-03T04:54:44.383Z,4.05
2023-01-03T04:57:11.373Z,4.90
2023-01-03T04:59:38.351Z,4.90
2023-01-03T05:02:05.411Z,5.80
2023-01-03T05:04:32.520Z,4.60
2023-01-03T05:06:59.536Z,5.88
2023-01-03T05:09:27.383Z,5.57
2023-01-03T05:11:54.573Z,5.15
2023-01-03T05:14:21.517Z,5.50
2023-01-03T05:16:48.491Z,6.00
2023-01-03T05:19:15.691Z,6.65
2023-01-03T05:22:01.285Z,6.15
2023-01-03T05:24:57.350Z,5.15
2023-01-03T05:27:24.531Z,5.53
2023-01-03T05:29:54.383Z,5.95
2023-01-03T05:32:22.941Z,6.35
2023-01-03T05:34:49.984Z,5.82
2023-01-03T05:37:16.911Z,6.72
2023-01-03T05:39:43.847Z,6.10
2023-01-03T05:42:10.900Z,5.80
2023-01-03T05:44:37.898Z,6.40
2023-01-03T05:47:05.548Z,6.13
2023-01-03T05:49:33.548Z,6.13
2023-01-03T05:52:00.517Z,6.20
2023-01-03T05:54:27.475Z,6.22
2023-01-03T05:56:54.511Z,5.15
2023-01-03T05:59:25.042Z,5.45
2023-01-03T06:01:52.064Z,5.60
2023-01-03T06:04:19.431Z,5.40
2023-01-03T06:06:47.603Z,5.22
2023-01-03T06:09:14.553Z,5.25
2023-01-03T06:11:41.567Z,4.90
2023-01-03T06:14:08.592Z,4.30
2023-01-03T06:16:54.261Z,5.45
2023-01-03T06:19:21.423Z,4.72
2023-01-03T06:21:49.623Z,5.13
2023-01-03T06:24:16.748Z,5.18
2023-01-03T06:26:43.676Z,5.00
2023-01-03T06:29:11.807Z,4.40
2023-01-03T06:31:38.804Z,4.75
2023-01-03T06:34:05.795Z,5.05
2023-01-03T06:36:34.554Z,4.00
2023-01-03T06:39:01.606Z,4.68
2023-01-03T06:41:28.661Z,4.22
2023-01-03T06:43:57.152Z,4.20
2023-01-03T06:46:44.901Z,4.05
2023-01-03T06:49:37.285Z,4.13
2023-01-03T06:52:33.239Z,3.80
2023-01-03T06:55:00.356Z,3.28
2023-01-03T06:57:27.627Z,3.33
2023-01-03T06:59:55.504Z,3.67
2023-01-03T07:02:22.636Z,3.70
2023-01-03T07:04:49.839Z,3.05
2023-01-03T07:07:16.829Z,3.22
2023-01-03T07:09:43.798Z,3.40
2023-01-03T07:12:37.152Z,2.67
2023-01-03T07:15:05.323Z,3.03
2023-01-03T07:17:32.304Z,2.85
2023-01-03T07:19:59.291Z,2.90
2023-01-03T07:22:27.586Z,2.78
2023-01-03T07:24:54.540Z,2.38
2023-01-03T07:27:21.594Z,2.45
2023-01-03T07:29:48.584Z,2.47
2023-01-03T07:32:15.642Z,2.78
2023-01-03T07:34:42.561Z,3.20
2023-01-03T07:37:09.567Z,2.53
2023-01-03T07:39:36.545Z,2.90
2023-01-03T07:42:22.276Z,2.55
2023-01-03T07:44:49.254Z,2.75
2023-01-03T07:47:16.183Z,2.85
2023-01-03T07:49:43.114Z,2.72
2023-01-03T07:52:11.535Z,3.58
2023-01-03T07:54:38.523Z,2.85
2023-01-03T07:57:05.632Z,3.03
2023-01-03T07:59:32.612Z,2.50
2023-01-03T08:01:59.696Z,3.17
2023-01-03T08:04:26.801Z,2.58
2023-01-03T08:06:53.835Z,2.95
2023-01-03T08:09:39.568Z,2.80
2023-01-03T08:12:25.182Z,2.75
2023-01-03T08:14:52.102Z,2.90
2023-01-03T08:17:19.030Z,3.67
2023-01-03T08:19:46.305Z,3.00
2023-01-03T08:22:29.771Z,3.10
2023-01-03T08:24:56.747Z,4.07
2023-01-03T08:27:23.657Z,4.13
2023-01-03T08:29:50.761Z,3.38
2023-01-03T08:32:18.124Z,3.67
2023-01-03T08:34:48.486Z,3.05
2023-01-03T08:37:17.160Z,2.42
2023-01-03T08:39:59.053Z,3.42
2023-01-03T08:42:29.971Z,2.90
2023-01-03T08:45:09.401Z,2.85
2023-01-03T08:47:36.522Z,2.80
2023-01-03T08:50:04.276Z,2.90
2023-01-03T08:52:35.084Z,3.00
2023-01-03T08:55:03.044Z,2.75
2023-01-03T08:57:30.374Z,2.72
2023-01-03T08:59:57.939Z,3.05
2023-01-03T09:02:25.219Z,3.30
2023-01-03T09:04:52.379Z,2.60
2023-01-03T09:07:19.405Z,4.20
2023-01-03T09:09:46.641Z,3.42
2023-01-03T09:12:15.066Z,3.20
2023-01-03T09:14:42.011Z,2.35
2023-01-03T09:17:08.960Z,3.30
2023-01-03T09:19:35.944Z,3.63
2023-01-03T09:22:03.162Z,2.42
2023-01-03T09:24:30.332Z,2.13
2023-01-03T09:26:57.433Z,2.78
2023-01-03T09:29:24.382Z,3.38
2023-01-03T09:31:51.920Z,2.53
2023-01-03T09:34:19.294Z,3.38
2023-01-03T09:36:46.258Z,3.65
2023-01-03T09:39:14.437Z,3.83
2023-01-03T09:41:42.550Z,3.85
2023-01-03T09:44:10.362Z,3.00
2023-01-03T09:46:37.901Z,3.28
2023-01-03T09:49:07.440Z,3.20
2023-01-03T09:52:03.524Z,2.40
2023-01-03T09:54:52.373Z,3.05
2023-01-03T09:57:45.838Z,3.03
2023-01-03T10:00:35.791Z,2.40
2023-01-03T10:03:33.129Z,3.60
2023-01-03T10:06:21.807Z,3.33
2023-01-03T10:09:19.132Z,3.10
2023-01-03T10:12:07.285Z,2.83
2023-01-03T10:14:48.889Z,3.03
2023-01-03T10:17:23.322Z,2.90
2023-01-03T10:20:15.101Z,2.55
2023-01-03T10:22:42.233Z,3.10
2023-01-03T10:25:15.373Z,2.78
2023-01-03T10:27:48.043Z,2.65
2023-01-03T10:30:25.979Z,2.88
2023-01-03T10:33:34.830Z,2.33
2023-01-03T10:36:01.825Z,2.30
2023-01-03T10:38:29.519Z,2.53
2023-01-03T10:41:04.759Z,2.47
2023-01-03T10:43:46.941Z,2.13
2023-01-03T10:46:18.852Z,2.30
2023-01-03T10:51:42.516Z,2.08
2023-01-03T10:54:12.039Z,2.55
2023-01-03T10:56:39.220Z,1.70
2023-01-03T10:59:16.396Z,2.22
2023-01-03T11:02:08.128Z,2.13
2023-01-03T11:04:36.082Z,2.55
2023-01-03T11:07:11.615Z,2.67
2023-01-03T11:09:57.627Z,2.00
2023-01-03T11:12:39.740Z,2.05
2023-01-03T11:15:20.550Z,2.20
2023-01-03T11:18:05.915Z,1.75
2023-01-03T11:20:44.891Z,2.75
2023-01-03T11:23:36.316Z,2.22
2023-01-03T11:26:22.750Z,2.00
2023-01-03T11:29:08.341Z,2.03
2023-01-03T11:31:41.652Z,2.30
2023-01-03T11:34:19.231Z,1.95
2023-01-03T11:36:59.477Z,2.40
2023-01-03T11:39:44.215Z,2.78
2023-01-03T11:42:39.021Z,2.00
2023-01-03T11:45:44.756Z,2.15
2023-01-03T11:48:38.652Z,2.28
2023-01-03T11:51:28.879Z,2.58
2023-01-03T11:54:38.668Z,2.20
2023-01-03T11:57:26.466Z,1.98
2023-01-03T12:00:05.224Z,2.13
2023-01-03T12:02:50.429Z,1.70
2023-01-03T12:05:45.579Z,2.40
2023-01-03T12:08:12.516Z,2.00
2023-01-03T12:10:56.465Z,2.13
2023-01-03T12:13:44.358Z,1.88
2023-01-03T12:16:21.311Z,1.90
2023-01-03T12:18:53.514Z,2.20
2023-01-03T12:21:42.766Z,2.10
2023-01-03T12:24:26.806Z,1.90
2023-01-03T12:27:00.790Z,2.00
2023-01-03T12:30:06.491Z,1.75
2023-01-03T12:32:50.748Z,1.63
2023-01-03T12:35:33.022Z,2.15
2023-01-03T12:37:59.993Z,2.10
2023-01-03T12:40:45.262Z,2.35
2023-01-03T12:43:20.829Z,2.15
2023-01-03T12:45:58.649Z,1.50
2023-01-03T12:48:46.870Z,2.60
2023-01-03T12:51:19.143Z,2.05
2023-01-03T12:54:24.692Z,1.42
2023-01-03T12:57:09.620Z,2.10
2023-01-03T12:59:51.681Z,1.88
2023-01-03T13:02:29.919Z,1.85
2023-01-03T13:05:21.777Z,1.95
2023-01-03T13:08:02.831Z,1.95
2023-01-03T13:10:33.429Z,1.92
2023-01-03T13:13:02.188Z,2.30
2023-01-03T13:15:37.175Z,3.05
2023-01-03T13:18:23.376Z,2.25
2023-01-03T13:20:54.780Z,2.53
2023-01-03T13:23:21.876Z,2.03
2023-01-03T13:26:19.787Z,1.80
2023-01-03T13:28:47.131Z,1.83
2023-01-03T13:31:23.164Z,2.08
2023-01-03T13:33:55.180Z,2.15
2023-01-03T13:36:23.528Z,2.38
2023-01-03T13:38:51.455Z,2.35
2023-01-03T13:41:37.941Z,2.40
2023-01-03T13:44:24.383Z,2.33
2023-01-03T13:46:52.173Z,2.67
2023-01-03T13:49:29.549Z,2.80
2023-01-03T13:51:58.502Z,1.50
2023-01-03T13:54:54.166Z,2.58
2023-01-03T13:57:38.309Z,2.25
2023-01-03T14:00:17.291Z,2.53
2023-01-03T14:03:16.247Z,2.25
2023-01-03T14:06:08.153Z,2.25
2023-01-03T14:08:38.146Z,2.17
2023-01-03T14:11:28.939Z,1.90
2023-01-03T14:14:05.079Z,2.42
2023-01-03T14:16:56.537Z,2.60
2023-01-03T14:19:38.070Z,2.72
2023-01-03T14:22:28.702Z,2.20
2023-01-03T14:24:59.246Z,2.38
2023-01-03T14:27:32.763Z,2.28
2023-01-03T14:30:00.858Z,2.35
2023-01-03T14:32:34.693Z,2.80
2023-01-03T14:35:03.130Z,1.90
2023-01-03T14:37:33.150Z,2.60
2023-01-03T14:40:06.290Z,2.00
2023-01-03T14:42:33.307Z,1.98
2023-01-03T14:45:02.910Z,2.30
2023-01-03T14:47:39.321Z,2.63
2023-01-03T14:50:11.422Z,2.10
2023-01-03T14:52:41.478Z,2.22
2023-01-03T14:55:17.033Z,2.28
2023-01-03T14:57:46.508Z,1.90
2023-01-03T15:00:20.021Z,2.10
2023-01-03T15:02:48.721Z,1.98
2023-01-03T15:05:33.039Z,2.47
2023-01-03T15:08:15.094Z,1.75
2023-01-03T15:10:49.823Z,2.10
2023-01-03T15:13:24.906Z,2.05
2023-01-03T15:16:05.220Z,2.30
2023-01-03T15:18:40.061Z,2.35
2023-01-03T15:21:07.344Z,3.30
2023-01-03T15:23:39.374Z,2.47
2023-01-03T15:26:27.524Z,2.70
2023-01-03T15:28:56.454Z,2.50
2023-01-03T15:31:34.965Z,2.20
2023-01-03T15:34:03.573Z,2.60
2023-01-03T15:36:32.946Z,2.88
2023-01-03T15:39:00.305Z,2.75
2023-01-03T15:42:12.260Z,2.53
2023-01-03T15:44:37.945Z,2.70
2023-01-03T15:47:08.249Z,2.40
2023-01-03T15:50:02.710Z,2.08
2023-01-03T15:52:29.689Z,2.78
2023-01-03T15:54:56.605Z,2.08
2023-01-03T15:57:29.702Z,2.60
2023-01-03T16:00:00.741Z,2.70
2023-01-03T16:02:30.046Z,2.50
2023-01-03T16:04:57.602Z,2.10
2023-01-03T16:07:24.575Z,2.33
2023-01-03T16:09:51.770Z,2.63
2023-01-03T16:12:22.613Z,1.98
2023-01-03T16:14:53.611Z,2.40
2023-01-03T16:17:25.359Z,2.70
2023-01-03T16:19:55.509Z,2.20
2023-01-03T16:22:34.547Z,2.83
2023-01-03T16:25:02.955Z,2.65
2023-01-03T16:27:29.910Z,2.47
2023-01-03T16:29:56.971Z,2.35
2023-01-03T16:32:29.638Z,2.60
2023-01-03T16:35:00.679Z,2.55
2023-01-03T16:37:28.204Z,2.45
2023-01-03T16:39:55.178Z,2.45
2023-01-03T16:42:27.855Z,2.25
2023-01-03T16:44:55.452Z,2.88
2023-01-03T16:47:29.700Z,3.00
2023-01-03T16:50:19.347Z,2.53
2023-01-03T16:52:53.807Z,2.65
2023-01-03T16:55:32.977Z,3.33
2023-01-03T16:58:00.509Z,2.13
2023-01-03T17:00:32.632Z,2.88
2023-01-03T17:03:00.922Z,3.05
2023-01-03T17:05:32.979Z,2.38
2023-01-03T17:08:12.724Z,2.40
2023-01-03T17:10:41.789Z,2.88
2023-01-03T17:13:34.403Z,2.50
2023-01-03T17:16:02.987Z,2.58
2023-01-03T17:18:32.972Z,2.42
2023-01-03T17:21:09.089Z,2.70
2023-01-03T17:23:38.924Z,3.15
2023-01-03T17:26:06.357Z,2.67
2023-01-03T17:28:35.180Z,2.75
2023-01-03T17:31:02.165Z,1.90
2023-01-03T17:33:34.007Z,2.58
2023-01-03T17:36:01.817Z,2.67
2023-01-03T17:38:30.669Z,3.03
2023-01-03T17:40:58.060Z,2.63
2023-01-03T17:43:25.573Z,2.78
2023-01-03T17:46:17.797Z,2.50
2023-01-03T17:49:08.429Z,2.17
2023-01-03T17:51:35.618Z,2.03
2023-01-03T17:54:02.671Z,2.40
2023-01-03T17:56:30.033Z,2.15
2023-01-03T17:58:57.469Z,2.60
2023-01-03T18:01:24.645Z,1.92
2023-01-03T18:03:52.049Z,2.47
2023-01-03T18:06:22.830Z,2.20
2023-01-03T18:08:52.219Z,1.98
2023-01-03T18:11:23.021Z,2.30
2023-01-03T18:13:50.309Z,2.45
2023-01-03T18:16:20.557Z,2.40
2023-01-03T18:18:48.521Z,2.20
2023-01-03T18:21:24.310Z,2.25
2023-01-03T18:23:56.529Z,2.47
2023-01-03T18:26:34.031Z,2.47
2023-01-03T18:29:01.626Z,2.28
2023-01-03T18:31:30.873Z,2.60
2023-01-03T18:33:58.207Z,3.15
2023-01-03T18:36:31.128Z,23.70
2023-01-03T18:39:21.392Z,25.48
2023-01-03T18:41:48.915Z,25.05
2023-01-03T18:44:26.493Z,23.00
2023-01-03T18:46:54.041Z,14.40
2023-01-03T18:49:26.698Z,15.45
2023-01-03T18:52:05.298Z,14.30
2023-01-03T18:54:38.391Z,14.73
2023-01-03T18:57:06.911Z,10.60
2023-01-03T18:59:33.950Z,9.75
2023-01-03T19:02:01.032Z,8.90
2023-01-03T19:04:28.311Z,9.77
2023-01-03T19:06:55.749Z,9.52
2023-01-03T19:09:25.487Z,7.38
2023-01-03T19:11:55.194Z,6.38
2023-01-03T19:14:22.285Z,5.75
2023-01-03T19:16:49.508Z,5.13
2023-01-03T19:19:16.776Z,4.40
2023-01-03T19:21:46.863Z,4.28
2023-01-03T19:24:25.040Z,3.95
2023-01-03T19:26:58.345Z,4.03
2023-01-03T19:29:36.597Z,4.68
2023-01-03T19:32:25.104Z,3.80
2023-01-03T19:34:52.317Z,4.28
2023-01-03T19:37:19.297Z,4.88
2023-01-03T19:39:46.305Z,3.38
2023-01-03T19:42:38.329Z,4.53
2023-01-03T19:45:17.375Z,4.10
2023-01-03T19:47:44.404Z,3.60
2023-01-03T19:50:25.968Z,3.50
2023-01-03T19:52:53.818Z,2.47
2023-01-03T19:55:25.099Z,3.33
2023-01-03T19:57:52.531Z,3.03
2023-01-03T20:00:25.426Z,2.70
2023-01-03T20:02:56.484Z,2.65
2023-01-03T20:05:26.685Z,3.22
2023-01-03T20:07:54.004Z,3.33
2023-01-03T20:10:23.823Z,3.17
2023-01-03T20:12:53.557Z,3.00
2023-01-03T20:15:22.768Z,2.83
2023-01-03T20:17:50.205Z,2.60
2023-01-03T20:20:17.561Z,3.15
2023-01-03T20:25:33.541Z,2.90
2023-01-03T20:28:01.850Z,2.30
2023-01-03T20:30:31.364Z,2.78
2023-01-03T20:32:59.030Z,2.80
2023-01-03T20:38:17.250Z,2.17
2023-01-03T20:40:44.317Z,2.63
2023-01-03T20:43:15.408Z,2.10
2023-01-03T20:45:42.584Z,3.75
2023-01-03T20:48:22.730Z,3.08
2023-01-03T20:50:52.450Z,3.70
2023-01-03T20:53:22.377Z,2.88
2023-01-03T20:55:50.553Z,2.88
2023-01-03T20:58:20.086Z,2.75
2023-01-03T21:00:47.267Z,3.20
2023-01-03T21:03:14.680Z,2.78
2023-01-03T21:05:41.813Z,2.83
2023-01-03T21:08:36.002Z,2.78
2023-01-03T21:11:05.570Z,2.60
2023-01-03T21:13:33.426Z,2.88
2023-01-03T21:16:00.382Z,3.72
2023-01-03T21:18:27.393Z,2.75
2023-01-03T21:20:54.401Z,2.25
2023-01-03T21:23:23.184Z,1.95
2023-01-03T21:25:52.929Z,2.35
2023-01-03T21:28:20.056Z,3.08
2023-01-03T21:30:47.051Z,2.30
2023-01-03T21:33:17.692Z,2.15
2023-01-03T21:35:50.557Z,2.53
2023-01-03T21:38:20.347Z,2.20
2023-01-03T21:40:50.373Z,2.28
2023-01-03T21:43:17.329Z,2.70
2023-01-03T21:45:46.606Z,2.28
2023-01-03T21:48:15.482Z,2.30
2023-01-03T21:50:44.931Z,2.10
2023-01-03T21:53:17.841Z,2.45
2023-01-03T21:55:45.684Z,2.40
2023-01-03T21:58:17.064Z,2.55
2023-01-03T22:00:44.746Z,1.88
2023-01-03T22:03:34.204Z,2.05
2023-01-03T22:06:12.859Z,2.47
2023-01-03T22:08:41.157Z,2.22
2023-01-03T22:11:08.281Z,2.38
2023-01-03T22:13:36.511Z,2.30
2023-01-03T22:16:08.802Z,2.05
2023-01-03T22:18:36.501Z,2.15
2023-01-03T22:21:09.874Z,1.85
2023-01-03T22:23:38.099Z,2.10
2023-01-03T22:26:07.899Z,2.08
2023-01-03T22:28:37.032Z,1.70
2023-01-03T22:31:25.445Z,1.80
2023-01-03T22:33:52.439Z,1.50
2023-01-03T22:36:19.419Z,2.00
2023-01-03T22:38:46.395Z,2.15
2023-01-03T22:41:17.846Z,2.10
2023-01-03T22:43:46.985Z,1.70
2023-01-03T22:46:17.163Z,1.85
2023-01-03T22:48:45.065Z,1.80
2023-01-03T22:51:15.412Z,1.73
2023-01-03T22:53:44.411Z,1.48
2023-01-03T22:56:17.068Z,1.95
2023-01-03T22:58:45.389Z,2.00
2023-01-03T23:01:18.163Z,1.60
2023-01-03T23:03:47.019Z,1.77
2023-01-03T23:06:17.350Z,1.90
2023-01-03T23:08:45.484Z,1.63
2023-01-03T23:11:34.675Z,1.70
2023-01-03T23:14:04.139Z,1.60
2023-01-03T23:16:32.381Z,1.58
2023-01-03T23:19:03.408Z,1.90
2023-01-03T23:21:30.611Z,1.48
2023-01-03T23:23:57.904Z,1.70
2023-01-03T23:26:24.865Z,1.60
2023-01-03T23:28:59.576Z,2.22
2023-01-03T23:31:27.634Z,1.58
2023-01-03T23:33:58.541Z,1.50
2023-01-03T23:36:26.515Z,2.08
2023-01-03T23:38:54.304Z,1.63
2023-01-03T23:41:22.676Z,1.65
2023-01-03T23:43:50.538Z,1.30
2023-01-03T23:46:23.005Z,1.48
2023-01-03T23:48:55.085Z,1.30
2023-01-03T23:51:22.327Z,1.50
2023-01-03T23:53:49.349Z,1.60
2023-01-03T23:56:19.463Z,1.40
2023-01-03T23:58:46.498Z,1.60
